Ashland, Virginia
Current Conditions -  °F | °C
As of 6:02 AM on Wednesday 26 Nov 2014 (Local Time) from KOFP Reporting Station
Light Rain Light Rain  
Wind Chill: 42°   Ceiling: 800
Heat Index: 44°   Visibility: 4mi
Dew Point: 42°   Wind: 5mph
Humidity: 93%   Direction: NA
Pressure: 30.05"   Gusts: NA
Location:  37.76°N, 77.48°W
Report Text: KOFP 261102Z AUTO VRB04KT 4SM -RA BR BKN008 OVC015 07/06 A3005 RMK AO2 P0002 T00670056
Loading
Personal Weather Stations






























Interactive Weather Map New forecast layout! Learn more

10-Day Weather Forecast

Advertisements
Track Severe Weather on mobile